createdAt,value
2022-11-13T00:02:19.318Z,4.55
2022-11-13T00:04:46.484Z,4.56
2022-11-13T00:07:13.182Z,4.65
2022-11-13T00:09:39.937Z,4.69
2022-11-13T00:12:06.684Z,4.72
2022-11-13T00:14:39.588Z,4.75
2022-11-13T00:17:07.713Z,4.78
2022-11-13T00:19:34.384Z,4.78
2022-11-13T00:22:01.048Z,4.79
2022-11-13T00:24:30.367Z,4.84
2022-11-13T00:26:57.007Z,4.80
2022-11-13T00:29:23.693Z,4.79
2022-11-13T00:31:50.368Z,4.79
2022-11-13T00:34:45.695Z,4.76
2022-11-13T00:37:03.816Z,4.85
2022-11-13T00:39:30.522Z,4.82
2022-11-13T00:41:57.159Z,4.83
2022-11-13T00:44:23.822Z,4.81
2022-11-13T00:46:50.461Z,4.79
2022-11-13T00:49:17.763Z,4.73
2022-11-13T00:51:44.475Z,4.61
2022-11-13T00:54:11.208Z,4.61
2022-11-13T00:56:37.923Z,4.65
2022-11-13T00:59:04.641Z,4.70
2022-11-13T01:01:31.398Z,4.66
2022-11-13T01:03:58.351Z,4.67
2022-11-13T01:06:28.142Z,4.71
2022-11-13T01:08:59.863Z,4.67
2022-11-13T01:11:30.956Z,4.60
2022-11-13T01:13:58.163Z,4.68
2022-11-13T01:16:29.516Z,4.65
2022-11-13T01:18:57.517Z,4.57
2022-11-13T01:21:28.432Z,4.49
2022-11-13T01:23:57.018Z,4.52
2022-11-13T01:26:28.316Z,4.64
2022-11-13T01:28:57.906Z,4.72
2022-11-13T01:31:30.461Z,4.71
2022-11-13T01:34:00.282Z,4.77
2022-11-13T01:36:29.719Z,4.79
2022-11-13T01:38:57.411Z,4.92
2022-11-13T01:41:33.704Z,4.98
2022-11-13T01:44:01.845Z,5.03
2022-11-13T01:46:42.235Z,5.02
2022-11-13T01:49:11.616Z,5.07
2022-11-13T01:51:55.814Z,5.14
2022-11-13T01:54:29.991Z,5.27
2022-11-13T01:56:59.212Z,5.25
2022-11-13T01:59:40.469Z,5.28
2022-11-13T02:02:08.349Z,5.24
2022-11-13T02:04:36.174Z,5.31
2022-11-13T02:07:09.592Z,5.29
2022-11-13T02:09:42.481Z,5.31
2022-11-13T02:12:15.643Z,5.26
2022-11-13T02:14:50.450Z,5.32
2022-11-13T02:17:34.131Z,5.30
2022-11-13T02:20:05.952Z,5.28
2022-11-13T02:23:24.305Z,5.28
2022-11-13T02:25:54.594Z,5.37
2022-11-13T02:28:21.556Z,5.36
2022-11-13T02:30:51.447Z,5.37
2022-11-13T02:33:33.358Z,5.43
2022-11-13T02:36:00.931Z,5.43
2022-11-13T02:38:27.979Z,5.49
2022-11-13T02:40:54.879Z,5.47
2022-11-13T02:43:21.595Z,5.46
2022-11-13T02:45:48.223Z,5.55
2022-11-13T02:48:14.835Z,5.54
2022-11-13T02:50:41.470Z,5.52
2022-11-13T02:53:08.665Z,5.50
2022-11-13T02:55:35.821Z,5.48
2022-11-13T02:58:02.654Z,5.41
2022-11-13T03:00:31.921Z,5.37
2022-11-13T03:03:01.311Z,5.34
2022-11-13T03:05:27.969Z,5.41
2022-11-13T03:07:54.740Z,5.49
2022-11-13T03:10:21.424Z,5.44
2022-11-13T03:12:50.735Z,5.44
2022-11-13T03:15:17.598Z,5.37
2022-11-13T03:17:45.472Z,5.40
2022-11-13T03:20:12.228Z,5.45
2022-11-13T03:22:38.884Z,5.41
2022-11-13T03:25:10.504Z,5.49
2022-11-13T03:27:37.835Z,5.54
2022-11-13T03:30:08.405Z,5.58
2022-11-13T03:32:35.324Z,5.55
2022-11-13T03:35:01.939Z,5.61
2022-11-13T03:37:28.691Z,5.61
2022-11-13T03:39:55.365Z,5.62
2022-11-13T03:42:22.163Z,5.60
2022-11-13T03:44:48.804Z,5.58
2022-11-13T03:47:15.901Z,5.51
2022-11-13T03:49:42.560Z,5.54
2022-11-13T03:52:09.459Z,5.51
2022-11-13T03:54:36.224Z,5.56
2022-11-13T03:57:03.316Z,5.56
2022-11-13T03:59:30.165Z,5.61
2022-11-13T04:01:57.128Z,5.60
2022-11-13T04:04:29.851Z,5.57
2022-11-13T04:06:57.047Z,5.50
2022-11-13T04:09:23.757Z,5.46
2022-11-13T04:11:50.432Z,5.40
2022-11-13T04:14:17.139Z,5.39
2022-11-13T04:16:43.827Z,5.37
2022-11-13T04:19:10.427Z,5.39
2022-11-13T04:21:37.218Z,5.41
2022-11-13T04:24:04.420Z,5.50
2022-11-13T04:26:31.106Z,5.47
2022-11-13T04:28:57.799Z,5.41
2022-11-13T04:31:24.423Z,5.45
2022-11-13T04:33:51.130Z,5.42
2022-11-13T04:36:17.718Z,5.48
2022-11-13T04:38:44.304Z,5.46
2022-11-13T04:41:32.087Z,5.43
2022-11-13T04:43:59.099Z,5.45
2022-11-13T04:46:25.738Z,5.41
2022-11-13T04:48:52.557Z,5.46
2022-11-13T04:51:19.359Z,5.55
2022-11-13T04:53:46.068Z,5.50
2022-11-13T04:56:12.736Z,5.43
2022-11-13T04:58:39.365Z,5.44
2022-11-13T05:01:06.064Z,5.53
2022-11-13T05:03:32.717Z,5.54
2022-11-13T05:06:10.102Z,5.54
2022-11-13T05:08:37.291Z,5.61
2022-11-13T05:11:04.320Z,5.60
2022-11-13T05:13:35.287Z,5.56
2022-11-13T05:16:10.763Z,5.57
2022-11-13T05:18:39.612Z,5.58
2022-11-13T05:21:10.249Z,5.57
2022-11-13T05:23:37.381Z,5.53
2022-11-13T05:26:13.175Z,5.54
2022-11-13T05:28:40.314Z,5.52
2022-11-13T05:31:16.411Z,5.57
2022-11-13T05:33:44.168Z,5.49
2022-11-13T05:36:14.927Z,5.44
2022-11-13T05:38:43.045Z,5.39
2022-11-13T05:41:21.834Z,5.45
2022-11-13T05:43:51.751Z,5.51
2022-11-13T05:46:27.418Z,5.46
2022-11-13T05:49:01.503Z,5.45
2022-11-13T05:51:33.663Z,5.45
2022-11-13T05:54:03.637Z,5.54
2022-11-13T05:56:35.731Z,5.60
2022-11-13T05:59:05.410Z,5.64
2022-11-13T06:01:41.313Z,5.61
2022-11-13T06:04:11.163Z,5.66
2022-11-13T06:06:37.935Z,5.70
2022-11-13T06:09:10.099Z,5.67
2022-11-13T06:11:37.982Z,5.73
2022-11-13T06:14:04.736Z,5.76
2022-11-13T06:16:38.058Z,5.74
2022-11-13T06:19:09.614Z,5.76
2022-11-13T06:21:40.791Z,5.81
2022-11-13T06:24:11.833Z,5.81
2022-11-13T06:26:38.823Z,5.83
2022-11-13T06:29:08.510Z,5.81
2022-11-13T06:31:37.836Z,5.80
2022-11-13T06:34:10.453Z,5.78
2022-11-13T06:36:38.140Z,5.82
2022-11-13T06:39:12.196Z,5.81
2022-11-13T06:41:40.120Z,5.79
2022-11-13T06:44:09.965Z,5.79
2022-11-13T06:46:39.543Z,5.81
2022-11-13T06:49:08.717Z,5.79
2022-11-13T06:51:35.473Z,5.79
2022-11-13T06:54:02.265Z,5.79
2022-11-13T06:56:29.015Z,5.78
2022-11-13T07:04:19.956Z,5.77
2022-11-13T07:06:46.787Z,5.79
2022-11-13T08:29:55.136Z,6.47
2022-11-13T08:32:22.550Z,6.47
2022-11-13T08:34:49.331Z,6.46
2022-11-13T08:37:16.116Z,6.43
2022-11-13T08:39:42.789Z,6.42
2022-11-13T08:42:09.718Z,6.39
2022-11-13T08:44:36.746Z,6.48
2022-11-13T08:47:03.936Z,6.55
2022-11-13T08:49:30.754Z,6.66
2022-11-13T08:51:57.597Z,6.71
2022-11-13T08:54:24.308Z,6.77
2022-11-13T08:56:56.133Z,6.82
2022-11-13T08:59:24.621Z,6.85
2022-11-13T09:01:53.376Z,6.88
2022-11-13T09:04:20.005Z,6.95
2022-11-13T09:06:46.677Z,7.03
2022-11-13T09:09:13.405Z,7.10
2022-11-13T09:11:40.061Z,7.11
2022-11-13T09:14:06.770Z,7.15
2022-11-13T09:16:33.590Z,7.15
2022-11-13T09:19:00.466Z,7.27
2022-11-13T09:21:30.071Z,7.31
2022-11-13T09:24:01.441Z,7.27
2022-11-13T09:26:28.081Z,7.32
2022-11-13T09:28:54.733Z,7.22
2022-11-13T09:31:21.428Z,7.14
2022-11-13T09:33:48.055Z,7.12
2022-11-13T09:36:16.357Z,7.19
2022-11-13T09:38:43.616Z,7.21
2022-11-13T09:41:18.149Z,7.12
2022-11-13T09:44:00.048Z,7.06
2022-11-13T09:46:57.487Z,7.01
2022-11-13T09:49:40.789Z,7.14
2022-11-13T09:52:21.645Z,6.85
2022-11-13T09:54:48.478Z,6.81
2022-11-13T09:57:47.002Z,6.69
2022-11-13T10:00:20.242Z,6.79
2022-11-13T10:03:12.113Z,6.72
2022-11-13T10:06:18.796Z,6.71
2022-11-13T10:09:03.634Z,6.75
2022-11-13T10:12:02.986Z,6.89
2022-11-13T10:14:42.139Z,6.98
2022-11-13T10:17:25.349Z,7.00
2022-11-13T10:20:16.085Z,7.01
2022-11-13T10:23:01.210Z,7.05
2022-11-13T10:25:37.054Z,7.07
2022-11-13T10:31:16.750Z,6.95
2022-11-13T10:33:46.593Z,6.92
2022-11-13T10:36:59.800Z,7.03
2022-11-13T10:39:26.602Z,6.98
2022-11-13T10:41:57.707Z,6.99
2022-11-13T10:44:35.416Z,6.93
2022-11-13T10:47:42.247Z,7.07
2022-11-13T10:50:38.283Z,7.06
2022-11-13T10:53:17.986Z,7.03
2022-11-13T10:55:55.893Z,7.08
2022-11-13T10:58:23.239Z,7.06
2022-11-13T11:00:50.216Z,6.96
2022-11-13T11:03:24.542Z,6.96
2022-11-13T11:05:54.554Z,6.99
2022-11-13T11:08:31.226Z,6.97
2022-11-13T11:11:35.783Z,7.01
2022-11-13T11:14:30.599Z,6.99
2022-11-13T11:17:02.070Z,7.01
2022-11-13T11:19:37.146Z,7.14
2022-11-13T11:22:20.801Z,7.17
2022-11-13T11:25:13.105Z,7.22
2022-11-13T11:28:47.842Z,7.16
2022-11-13T11:31:52.502Z,7.20
2022-11-13T11:35:04.920Z,7.26
2022-11-13T11:37:43.923Z,7.40
2022-11-13T11:40:32.843Z,7.49
2022-11-13T11:43:19.891Z,7.44
2022-11-13T11:45:47.462Z,7.56
2022-11-13T11:48:31.252Z,7.66
2022-11-13T11:51:54.303Z,7.60
2022-11-13T11:54:49.309Z,7.65
2022-11-13T11:57:46.290Z,7.72
2022-11-13T12:00:19.609Z,7.72
2022-11-13T12:03:29.244Z,7.75
2022-11-13T12:06:24.336Z,7.59
2022-11-13T12:09:24.729Z,7.60
2022-11-13T12:12:36.676Z,7.62
2022-11-13T12:15:17.804Z,7.50
2022-11-13T12:18:39.520Z,7.51
2022-11-13T12:24:39.450Z,7.50
2022-11-13T12:27:34.367Z,7.51
2022-11-13T12:30:03.985Z,7.57
2022-11-13T12:32:55.170Z,7.59
2022-11-13T12:35:26.766Z,7.65
2022-11-13T12:38:36.560Z,7.80
2022-11-13T12:41:14.786Z,7.89
2022-11-13T12:44:15.168Z,8.03
2022-11-13T12:46:43.888Z,8.00
2022-11-13T12:49:37.297Z,8.00
2022-11-13T12:52:20.514Z,7.99
2022-11-13T12:54:47.240Z,7.96
2022-11-13T12:57:13.867Z,7.91
2022-11-13T12:59:48.333Z,7.95
2022-11-13T13:02:14.858Z,8.01
2022-11-13T13:05:27.295Z,8.01
2022-11-13T13:08:49.206Z,8.08
2022-11-13T13:11:46.275Z,8.12
2022-11-13T13:14:58.340Z,8.14
2022-11-13T13:17:27.771Z,8.25
2022-11-13T13:20:19.924Z,8.39
2022-11-13T13:22:59.728Z,8.38
2022-11-13T13:25:35.945Z,8.40
2022-11-13T13:28:23.035Z,8.43
2022-11-13T13:31:33.540Z,8.43
2022-11-13T13:34:48.749Z,8.57
2022-11-13T13:37:41.085Z,8.59
2022-11-13T13:40:42.974Z,8.56
2022-11-13T13:44:16.285Z,8.59
2022-11-13T13:46:42.991Z,8.58
2022-11-13T13:49:22.089Z,8.59
2022-11-13T13:51:56.096Z,8.59
2022-11-13T13:54:30.703Z,8.61
2022-11-13T13:57:01.818Z,8.56
2022-11-13T13:59:37.627Z,8.61
2022-11-13T14:02:24.665Z,8.56
2022-11-13T14:04:55.244Z,8.62
2022-11-13T14:07:32.935Z,8.57
2022-11-13T14:10:13.085Z,8.57
2022-11-13T14:12:45.970Z,8.56
2022-11-13T14:15:34.711Z,8.60
2022-11-13T14:18:18.081Z,8.59
2022-11-13T14:20:56.045Z,8.57
2022-11-13T14:23:34.304Z,8.57
2022-11-13T14:26:03.350Z,8.54
2022-11-13T14:28:44.152Z,8.50
2022-11-13T14:31:15.661Z,8.49
2022-11-13T14:33:50.202Z,8.48
2022-11-13T14:36:37.340Z,8.49
2022-11-13T14:39:05.233Z,8.46
2022-11-13T14:41:57.467Z,8.41
2022-11-13T14:44:32.733Z,8.40
2022-11-13T14:47:19.973Z,8.41
2022-11-13T14:49:46.682Z,8.36
2022-11-13T14:52:35.688Z,8.36
2022-11-13T14:55:15.261Z,8.36
2022-11-13T14:57:50.203Z,8.31
2022-11-13T15:00:29.718Z,8.32
2022-11-13T15:02:57.022Z,8.33
2022-11-13T15:05:23.782Z,8.32
2022-11-13T15:07:55.164Z,8.32
2022-11-13T15:10:27.126Z,8.32
2022-11-13T15:12:54.161Z,8.30
2022-11-13T15:15:30.355Z,8.31
2022-11-13T15:17:57.486Z,8.32
2022-11-13T15:20:30.663Z,8.31
2022-11-13T15:23:17.720Z,8.30
2022-11-13T15:25:44.318Z,8.29
2022-11-13T15:28:13.252Z,8.28
2022-11-13T15:30:40.671Z,8.27
2022-11-13T15:33:16.479Z,8.21
2022-11-13T15:35:44.430Z,8.23
2022-11-13T15:38:12.167Z,8.22
2022-11-13T15:40:39.583Z,8.19
2022-11-13T15:43:23.006Z,8.21
2022-11-13T15:45:50.004Z,8.18
2022-11-13T15:48:16.725Z,8.20
2022-11-13T15:50:43.715Z,8.18
2022-11-13T15:53:14.462Z,8.18
2022-11-13T15:55:42.355Z,8.18
2022-11-13T15:58:18.783Z,8.20
2022-11-13T16:00:46.049Z,8.20
2022-11-13T16:03:12.912Z,8.19
2022-11-13T16:05:40.642Z,8.18
2022-11-13T16:08:15.644Z,8.18
2022-11-13T16:10:55.183Z,8.16
2022-11-13T16:13:22.031Z,8.13
2022-11-13T16:15:49.381Z,8.18
2022-11-13T16:18:30.569Z,8.18
2022-11-13T16:20:58.144Z,8.17
2022-11-13T16:23:28.069Z,8.17
2022-11-13T16:25:55.273Z,8.16
2022-11-13T16:28:21.985Z,8.17
2022-11-13T16:30:52.749Z,8.15
2022-11-13T16:33:19.468Z,8.17
2022-11-13T16:35:46.174Z,8.18
2022-11-13T16:38:19.288Z,8.18
2022-11-13T16:40:48.830Z,8.19
2022-11-13T16:43:16.601Z,8.20
2022-11-13T16:45:43.362Z,8.19
2022-11-13T16:48:15.944Z,8.18
2022-11-13T16:50:43.027Z,8.20
2022-11-13T16:53:15.705Z,8.21
2022-11-13T16:55:51.558Z,8.20
2022-11-13T16:58:18.380Z,8.20
2022-11-13T17:00:45.031Z,8.20
2022-11-13T17:03:11.678Z,8.22
2022-11-13T17:05:38.341Z,8.21
2022-11-13T17:08:06.041Z,8.23
2022-11-13T17:10:33.440Z,8.23
2022-11-13T17:13:00.965Z,8.22
2022-11-13T17:15:27.877Z,8.24
2022-11-13T17:17:58.659Z,8.27
2022-11-13T17:20:26.534Z,8.24
2022-11-13T17:22:53.557Z,8.26
2022-11-13T17:25:23.195Z,8.29
2022-11-13T17:27:49.815Z,8.28
2022-11-13T17:30:17.061Z,8.28
2022-11-13T17:32:44.080Z,8.31
2022-11-13T17:35:13.201Z,8.32
2022-11-13T17:37:40.223Z,8.38
2022-11-13T17:40:11.467Z,8.38
2022-11-13T17:42:38.102Z,8.35
2022-11-13T17:45:05.497Z,8.36
2022-11-13T17:47:34.402Z,8.38
2022-11-13T17:50:06.784Z,8.38
2022-11-13T17:52:36.197Z,8.40
2022-11-13T17:55:06.090Z,8.42
2022-11-13T17:57:33.676Z,8.42
2022-11-13T18:00:00.275Z,8.42
2022-11-13T18:02:27.240Z,8.43
2022-11-13T18:04:58.262Z,8.46
2022-11-13T18:07:25.186Z,8.50
2022-11-13T18:09:51.891Z,8.49
2022-11-13T18:12:18.450Z,8.51
2022-11-13T18:14:46.065Z,8.54
2022-11-13T18:17:12.991Z,8.53
2022-11-13T18:19:39.614Z,8.57
2022-11-13T18:22:22.393Z,8.57
2022-11-13T18:24:49.328Z,8.58
2022-11-13T18:27:16.026Z,8.60
2022-11-13T18:29:42.738Z,8.62
2022-11-13T18:32:12.467Z,8.64
2022-11-13T18:34:45.687Z,8.64
2022-11-13T18:37:15.098Z,8.67
2022-11-13T18:39:41.805Z,8.68
2022-11-13T18:42:08.400Z,8.68
2022-11-13T18:44:36.551Z,8.67
2022-11-13T18:47:03.589Z,8.72
2022-11-13T18:49:30.230Z,8.74
2022-11-13T18:51:56.925Z,8.72
2022-11-13T18:54:23.575Z,8.74
2022-11-13T18:56:50.245Z,8.75
2022-11-13T18:59:16.945Z,8.74
2022-11-13T19:01:43.708Z,8.77
2022-11-13T19:04:27.133Z,8.73
2022-11-13T19:06:53.914Z,8.77
2022-11-13T19:09:21.379Z,8.79
2022-11-13T19:11:48.321Z,8.79
2022-11-13T19:14:18.330Z,8.79
2022-11-13T19:16:46.030Z,8.81
2022-11-13T19:19:21.595Z,8.82
2022-11-13T19:21:51.057Z,8.82
2022-11-13T19:24:18.037Z,8.82
2022-11-13T19:26:45.879Z,8.81
2022-11-13T19:29:13.715Z,8.81
2022-11-13T19:31:41.061Z,8.82
2022-11-13T20:01:27.599Z,8.83
2022-11-13T20:04:02.358Z,8.84
2022-11-13T20:28:19.345Z,8.80
2022-11-13T20:30:45.992Z,8.79
2022-11-13T20:33:12.829Z,8.79
2022-11-13T20:35:39.460Z,8.79
2022-11-13T20:38:06.201Z,8.81
2022-11-13T20:43:13.546Z,8.82
2022-11-13T20:59:22.886Z,8.75
2022-11-13T21:01:49.697Z,8.76
2022-11-13T21:04:16.873Z,8.77
2022-11-13T21:06:43.832Z,8.77
2022-11-13T21:11:51.788Z,8.74
2022-11-13T21:14:18.544Z,8.75
2022-11-13T21:16:45.131Z,8.75
2022-11-13T21:19:12.245Z,8.73
2022-11-13T21:21:40.212Z,8.73
2022-11-13T21:24:14.380Z,8.74
2022-11-13T21:26:40.952Z,8.73
2022-11-13T21:29:12.663Z,8.72
2022-11-13T21:31:39.284Z,8.72
2022-11-13T21:34:05.985Z,8.71
2022-11-13T21:36:32.570Z,8.70
2022-11-13T21:38:59.149Z,8.67
2022-11-13T21:41:25.992Z,8.66
2022-11-13T21:43:53.130Z,8.66
2022-11-13T21:46:23.161Z,8.65
2022-11-13T21:48:58.812Z,8.58
2022-11-13T21:51:26.520Z,8.59
2022-11-13T21:54:20.042Z,8.55
2022-11-13T21:56:46.743Z,8.56
2022-11-13T21:59:13.365Z,8.52
2022-11-13T22:01:40.026Z,8.50
2022-11-13T22:04:07.070Z,8.49
2022-11-13T22:06:39.666Z,8.50
2022-11-13T22:09:35.659Z,8.47
2022-11-13T22:12:02.328Z,8.46
2022-11-13T22:14:28.981Z,8.50
2022-11-13T22:16:55.628Z,8.51
2022-11-13T22:19:26.651Z,8.49
2022-11-13T22:21:54.650Z,8.48
2022-11-13T22:24:21.377Z,8.50
2022-11-13T22:26:48.404Z,8.51
2022-11-13T22:29:15.492Z,8.51
2022-11-13T22:31:42.903Z,8.48
2022-11-13T22:34:09.561Z,8.50
2022-11-13T22:36:37.623Z,8.52
2022-11-13T22:39:06.002Z,8.53
2022-11-13T22:41:36.300Z,8.53
2022-11-13T22:44:14.268Z,8.49
2022-11-13T22:46:42.439Z,8.46
2022-11-13T22:49:12.682Z,8.44
2022-11-13T22:51:41.756Z,8.47
2022-11-13T22:54:12.699Z,8.44
2022-11-13T22:56:41.705Z,8.44
2022-11-13T22:59:12.650Z,8.46
2022-11-13T23:01:42.941Z,8.46
2022-11-13T23:04:13.963Z,8.48
2022-11-13T23:06:41.557Z,8.48
2022-11-13T23:09:08.574Z,8.47
2022-11-13T23:11:40.510Z,8.44
2022-11-13T23:14:19.801Z,8.43
2022-11-13T23:16:46.565Z,8.44
2022-11-13T23:19:13.770Z,8.44
2022-11-13T23:21:42.993Z,8.42
2022-11-13T23:24:11.563Z,8.42
2022-11-13T23:26:39.228Z,8.42
2022-11-13T23:29:06.087Z,8.41
2022-11-13T23:31:32.702Z,8.40
2022-11-13T23:33:59.448Z,8.40
2022-11-13T23:36:27.430Z,8.38
2022-11-13T23:38:54.035Z,8.39
2022-11-13T23:41:20.594Z,8.39
2022-11-13T23:46:36.934Z,8.39
2022-11-13T23:49:03.627Z,8.37
2022-11-13T23:51:30.293Z,8.32
2022-11-13T23:53:57.085Z,8.32
2022-11-13T23:56:23.721Z,8.30
2022-11-13T23:58:53.228Z,8.28
